Time;durP1;ratioP1;P1;durP2;ratioP2;P2;SDS_P1;SDS_P2;PMS_P1;PMS_P2;Temp;Humidity;BMP_temperature;BMP_pressure;BME280_temperature;BME280_humidity;BME280_pressure;Samples;Min_cycle;Max_cycle;Signal;HPM_P1;HPM_P2
2023/10/24 00:02:13;;;;;;;13.50;9.63;;;11.40;99.90;;;;;;6254331;28;20057;-76
2023/10/24 00:05:15;;;;;;;17.45;9.82;;;11.40;99.90;;;;;;6254482;28;20049;-76
2023/10/24 00:08:17;;;;;;;21.23;9.13;;;11.40;99.90;;;;;;6254202;28;20042;-76
2023/10/24 00:11:18;;;;;;;16.95;10.45;;;11.40;99.90;;;;;;6261130;28;20454;-76
2023/10/24 00:14:20;;;;;;;14.70;9.75;;;11.40;99.90;;;;;;6255586;28;20049;-75
2023/10/24 00:17:23;;;;;;;10.65;7.78;;;11.40;99.90;;;;;;6260732;28;20128;-75
2023/10/24 00:20:25;;;;;;;14.43;9.25;;;11.40;99.90;;;;;;6318894;22;20519;-79
2023/10/24 00:23:29;;;;;;;14.07;8.85;;;11.40;99.90;;;;;;6286772;28;20041;-79
2023/10/24 00:26:30;;;;;;;11.70;9.02;;;11.40;99.90;;;;;;6291702;28;20056;-80
2023/10/24 00:29:32;;;;;;;16.80;10.18;;;11.40;99.90;;;;;;6297282;28;20047;-79
2023/10/24 00:32:35;;;;;;;14.75;9.57;;;11.40;99.90;;;;;;6293838;28;20048;-79
2023/10/24 00:35:37;;;;;;;15.90;10.63;;;11.40;99.90;;;;;;6302541;28;20496;-79
2023/10/24 00:38:38;;;;;;;16.95;10.18;;;11.40;99.90;;;;;;6288663;28;20414;-79
2023/10/24 00:41:40;;;;;;;15.02;11.13;;;11.50;99.90;;;;;;6293849;28;20048;-79
2023/10/24 00:44:42;;;;;;;16.65;11.18;;;11.50;99.90;;;;;;6298644;28;20046;-79
2023/10/24 00:47:45;;;;;;;18.20;9.57;;;11.50;99.90;;;;;;6289635;28;20037;-78
2023/10/24 00:50:48;;;;;;;16.45;10.40;;;11.50;99.90;;;;;;6281760;28;20048;-79
2023/10/24 00:53:50;;;;;;;13.27;10.07;;;11.50;99.90;;;;;;6296832;28;20137;-79
2023/10/24 00:56:52;;;;;;;18.52;11.30;;;11.50;99.90;;;;;;6297505;28;20071;-78
2023/10/24 00:59:55;;;;;;;20.85;12.85;;;11.60;99.90;;;;;;6296952;28;20048;-80
2023/10/24 01:03:01;;;;;;;16.55;10.75;;;11.50;99.90;;;;;;6301186;28;20052;-80
2023/10/24 01:06:02;;;;;;;19.92;12.95;;;11.50;99.90;;;;;;6303953;28;20049;-78
2023/10/24 01:09:05;;;;;;;19.23;11.63;;;11.50;99.90;;;;;;6301672;28;20044;-78
2023/10/24 01:12:08;;;;;;;14.52;10.20;;;11.50;99.90;;;;;;6301425;28;20369;-79
2023/10/24 01:15:10;;;;;;;15.45;10.85;;;11.40;99.90;;;;;;6301570;28;20037;-78
2023/10/24 01:18:13;;;;;;;22.63;12.32;;;11.40;99.90;;;;;;6299250;28;20059;-79
2023/10/24 01:21:15;;;;;;;13.93;11.05;;;11.40;99.90;;;;;;6302682;28;20051;-79
2023/10/24 01:24:18;;;;;;;14.00;10.45;;;11.40;99.90;;;;;;6303548;28;20062;-78
2023/10/24 01:27:21;;;;;;;19.70;12.02;;;11.40;99.90;;;;;;6302868;28;20392;-78
2023/10/24 01:30:23;;;;;;;21.15;12.75;;;11.40;99.90;;;;;;6295841;28;20045;-79
2023/10/24 01:33:24;;;;;;;22.00;12.80;;;11.50;99.90;;;;;;6305658;28;20048;-79
2023/10/24 01:36:26;;;;;;;15.77;11.63;;;11.50;99.90;;;;;;6295600;28;20045;-80
2023/10/24 01:39:30;;;;;;;18.70;10.57;;;11.50;99.90;;;;;;6302098;28;20386;-79
2023/10/24 01:42:32;;;;;;;22.92;11.55;;;11.50;99.90;;;;;;6305757;28;20053;-79
2023/10/24 01:45:34;;;;;;;15.30;11.15;;;11.50;99.90;;;;;;6309870;28;20052;-79
2023/10/24 01:48:36;;;;;;;16.85;11.43;;;11.60;99.90;;;;;;6300089;28;20041;-79
2023/10/24 01:51:38;;;;;;;16.55;11.48;;;11.60;99.90;;;;;;6301642;28;20044;-79
2023/10/24 01:54:41;;;;;;;14.63;10.45;;;11.60;99.90;;;;;;6309858;28;20045;-79
2023/10/24 01:57:43;;;;;;;18.85;12.15;;;11.60;99.90;;;;;;6308369;28;20051;-78
2023/10/24 02:00:45;;;;;;;17.98;11.50;;;11.60;99.90;;;;;;6299884;28;20521;-79
2023/10/24 02:03:46;;;;;;;17.13;11.07;;;11.60;99.90;;;;;;6307638;28;20167;-79
2023/10/24 02:06:48;;;;;;;16.65;12.13;;;11.50;99.90;;;;;;6307742;28;20045;-79
2023/10/24 02:09:51;;;;;;;19.48;12.63;;;11.50;99.90;;;;;;6306934;28;20049;-79
2023/10/24 02:12:53;;;;;;;16.75;12.02;;;11.50;99.90;;;;;;6304084;28;20566;-79
2023/10/24 02:15:55;;;;;;;20.15;12.65;;;11.50;99.90;;;;;;6299958;28;20148;-79
2023/10/24 02:18:56;;;;;;;16.67;12.52;;;11.50;99.90;;;;;;6301278;28;20531;-78
2023/10/24 02:21:58;;;;;;;17.63;11.93;;;11.50;99.90;;;;;;6304665;28;20053;-79
2023/10/24 02:25:02;;;;;;;15.13;10.82;;;11.50;99.90;;;;;;6303344;28;20062;-78
2023/10/24 02:28:03;;;;;;;16.70;10.43;;;11.40;99.90;;;;;;6302650;28;20382;-78
2023/10/24 02:31:05;;;;;;;17.10;12.23;;;11.40;99.90;;;;;;6303462;28;20046;-80
2023/10/24 02:34:07;;;;;;;17.13;11.60;;;11.40;99.90;;;;;;6306990;28;20074;-79
2023/10/24 02:37:08;;;;;;;16.33;10.90;;;11.40;99.90;;;;;;6301177;28;20567;-79
2023/10/24 02:40:12;;;;;;;21.92;12.68;;;11.40;99.90;;;;;;6297084;28;20044;-78
2023/10/24 02:43:14;;;;;;;19.58;11.18;;;11.40;99.90;;;;;;6301477;28;20048;-79
2023/10/24 02:46:16;;;;;;;17.00;10.38;;;11.40;99.90;;;;;;6306921;28;20053;-79
2023/10/24 02:49:17;;;;;;;15.10;11.25;;;11.40;99.90;;;;;;6305021;28;20046;-78
2023/10/24 02:52:19;;;;;;;16.13;11.93;;;11.40;99.90;;;;;;6304230;28;20052;-79
2023/10/24 02:55:22;;;;;;;16.10;11.57;;;11.40;99.90;;;;;;6305984;28;20626;-80
2023/10/24 02:58:24;;;;;;;16.83;11.63;;;11.40;99.90;;;;;;6277896;28;20049;-79
2023/10/24 03:01:27;;;;;;;18.08;12.80;;;11.40;99.90;;;;;;6303554;28;20067;-79
2023/10/24 03:04:28;;;;;;;17.48;12.43;;;11.40;99.90;;;;;;6295718;28;20055;-78
2023/10/24 03:07:30;;;;;;;19.00;12.00;;;11.40;99.90;;;;;;6301637;28;20037;-78
2023/10/24 03:10:39;;;;;;;18.27;11.85;;;11.40;99.90;;;;;;6302135;28;20051;-78
2023/10/24 03:13:41;;;;;;;16.50;11.98;;;11.40;99.90;;;;;;6291519;28;20056;-78
2023/10/24 03:16:42;;;;;;;18.75;12.90;;;11.40;99.90;;;;;;6292016;28;20044;-78
2023/10/24 03:19:44;;;;;;;19.88;12.50;;;11.40;99.90;;;;;;6300469;28;20040;-78
2023/10/24 03:22:46;;;;;;;19.65;12.65;;;11.40;99.90;;;;;;6299774;28;20054;-78
2023/10/24 03:25:50;;;;;;;25.33;14.50;;;11.40;99.90;;;;;;6295199;28;20044;-78
2023/10/24 03:28:51;;;;;;;20.90;11.70;;;11.40;99.90;;;;;;6297732;28;20045;-78
2023/10/24 03:31:53;;;;;;;21.67;12.45;;;11.40;99.90;;;;;;6295999;28;20049;-77
2023/10/24 03:34:56;;;;;;;17.17;12.98;;;11.40;99.90;;;;;;6293131;28;20052;-78
2023/10/24 03:37:58;;;;;;;22.40;13.32;;;11.40;99.90;;;;;;6296701;28;20055;-78
2023/10/24 03:41:01;;;;;;;16.98;12.07;;;11.40;99.90;;;;;;6291858;28;20044;-78
2023/10/24 03:44:03;;;;;;;18.42;11.35;;;11.40;99.90;;;;;;6291145;28;20041;-78
2023/10/24 03:47:04;;;;;;;16.33;13.07;;;11.40;99.90;;;;;;6295291;28;20428;-78
2023/10/24 03:50:06;;;;;;;16.65;11.65;;;11.40;99.90;;;;;;6286646;28;20056;-78
2023/10/24 03:53:08;;;;;;;14.40;11.13;;;11.40;99.90;;;;;;6290260;28;20444;-77
2023/10/24 03:56:11;;;;;;;17.00;13.00;;;11.40;99.90;;;;;;6289701;28;20055;-77
2023/10/24 03:59:13;;;;;;;20.20;12.80;;;11.50;99.90;;;;;;6286088;28;20416;-78
2023/10/24 04:02:15;;;;;;;16.67;12.63;;;11.50;99.90;;;;;;6296212;28;20135;-77
2023/10/24 04:05:16;;;;;;;13.40;10.50;;;11.50;99.90;;;;;;6294328;28;20547;-78
2023/10/24 04:08:18;;;;;;;20.10;12.48;;;11.50;99.90;;;;;;6294181;28;20071;-77
2023/10/24 04:11:21;;;;;;;16.35;11.40;;;11.50;99.90;;;;;;6285733;28;20069;-78
2023/10/24 04:14:24;;;;;;;18.63;11.00;;;11.50;99.90;;;;;;6294794;28;20080;-78
2023/10/24 04:17:26;;;;;;;20.73;12.02;;;11.50;99.90;;;;;;6277635;28;20044;-77
2023/10/24 04:20:27;;;;;;;18.50;12.43;;;11.50;99.90;;;;;;6293421;28;20048;-77
2023/10/24 04:23:29;;;;;;;22.25;12.27;;;11.50;99.90;;;;;;6294754;28;20040;-77
2023/10/24 04:26:34;;;;;;;20.90;11.05;;;11.50;99.90;;;;;;6295460;28;20048;-78
2023/10/24 04:29:35;;;;;;;20.30;12.38;;;11.50;99.90;;;;;;6296949;28;20128;-78
2023/10/24 04:32:37;;;;;;;23.98;12.23;;;11.40;99.90;;;;;;6294606;28;20630;-78
2023/10/24 04:35:43;;;;;;;19.30;11.80;;;11.40;99.90;;;;;;6295291;28;20055;-78
2023/10/24 04:38:44;;;;;;;19.42;11.95;;;11.40;99.90;;;;;;6297984;28;20129;-77
2023/10/24 04:41:48;;;;;;;17.55;11.60;;;11.40;99.90;;;;;;6302620;28;20052;-79
2023/10/24 04:44:50;;;;;;;21.90;12.23;;;11.40;99.90;;;;;;6300787;28;20048;-79
2023/10/24 04:47:51;;;;;;;25.05;13.10;;;11.40;99.90;;;;;;6300896;28;20124;-79
2023/10/24 04:50:53;;;;;;;18.05;11.98;;;11.40;99.90;;;;;;6275729;28;20046;-79
2023/10/24 04:53:55;;;;;;;18.33;12.57;;;11.40;99.90;;;;;;6296111;28;20614;-78
2023/10/24 04:56:59;;;;;;;17.38;11.40;;;11.40;99.90;;;;;;6303334;28;20049;-78
2023/10/24 05:00:01;;;;;;;18.60;10.93;;;11.40;99.90;;;;;;6303199;28;20040;-79
2023/10/24 05:03:03;;;;;;;19.98;13.23;;;11.40;99.90;;;;;;6302925;28;20051;-79
2023/10/24 05:06:05;;;;;;;19.27;11.98;;;11.40;99.90;;;;;;6301792;28;20401;-79
2023/10/24 05:09:07;;;;;;;23.67;11.02;;;11.40;99.90;;;;;;6300650;28;20051;-79
2023/10/24 05:12:10;;;;;;;23.50;13.95;;;11.40;99.90;;;;;;6300763;28;20040;-78
2023/10/24 05:15:12;;;;;;;18.05;11.25;;;11.40;99.90;;;;;;6301629;28;20048;-78
2023/10/24 05:18:13;;;;;;;19.70;11.88;;;11.40;99.90;;;;;;6301992;28;20416;-78
2023/10/24 05:21:15;;;;;;;17.95;11.98;;;11.40;99.90;;;;;;6300771;28;20070;-79
2023/10/24 05:24:17;;;;;;;23.27;12.10;;;11.50;99.90;;;;;;6301689;28;20040;-78
2023/10/24 05:27:20;;;;;;;20.83;12.02;;;11.50;99.90;;;;;;6300029;28;20655;-77
2023/10/24 05:30:22;;;;;;;25.15;13.77;;;11.50;99.90;;;;;;6293187;28;20126;-79
2023/10/24 05:33:23;;;;;;;19.40;12.13;;;11.50;99.90;;;;;;6302680;28;20063;-79
2023/10/24 05:36:25;;;;;;;17.02;11.57;;;11.60;99.90;;;;;;6302505;28;20040;-80
2023/10/24 05:39:28;;;;;;;19.17;11.48;;;11.60;99.90;;;;;;6285457;28;20512;-80
2023/10/24 05:42:31;;;;;;;14.07;10.25;;;11.60;99.90;;;;;;6271862;28;20249;-80
2023/10/24 05:45:33;;;;;;;18.30;10.35;;;11.60;99.90;;;;;;6295275;28;20382;-79
2023/10/24 05:48:35;;;;;;;27.92;12.18;;;11.50;99.90;;;;;;6303805;28;20041;-80
2023/10/24 05:51:37;;;;;;;17.85;12.35;;;11.50;99.90;;;;;;6303416;28;20055;-79
2023/10/24 05:54:38;;;;;;;23.23;15.43;;;11.60;99.90;;;;;;6303203;28;20040;-79
2023/10/24 05:57:42;;;;;;;26.95;17.02;;;11.50;99.90;;;;;;6284826;28;20143;-79
2023/10/24 06:00:43;;;;;;;35.03;17.52;;;11.60;99.90;;;;;;6286158;28;20043;-80
2023/10/24 06:03:46;;;;;;;19.67;14.35;;;11.60;99.90;;;;;;6302389;28;20044;-79
2023/10/24 06:06:48;;;;;;;23.05;13.57;;;11.60;99.90;;;;;;6301136;28;20066;-80
2023/10/24 06:09:50;;;;;;;18.98;12.98;;;11.60;99.90;;;;;;6302214;28;20059;-79
2023/10/24 06:12:53;;;;;;;21.02;12.10;;;11.60;99.90;;;;;;6292971;28;20053;-78
2023/10/24 06:15:55;;;;;;;18.92;12.65;;;11.60;99.90;;;;;;6302897;28;20080;-78
2023/10/24 06:18:56;;;;;;;22.48;12.88;;;11.60;99.90;;;;;;6298640;28;20420;-78
2023/10/24 06:21:58;;;;;;;21.70;14.13;;;11.60;99.90;;;;;;6321742;22;20040;-78
2023/10/24 06:25:00;;;;;;;24.75;12.50;;;11.60;99.90;;;;;;6327581;28;20716;-78
2023/10/24 06:28:03;;;;;;;21.33;12.93;;;11.60;99.90;;;;;;6326684;28;20695;-79
2023/10/24 06:31:05;;;;;;;20.23;13.35;;;11.50;99.90;;;;;;6326595;28;20040;-78
2023/10/24 06:34:07;;;;;;;22.42;13.20;;;11.50;99.90;;;;;;6326887;28;20396;-78
2023/10/24 06:37:09;;;;;;;20.52;12.60;;;11.50;99.90;;;;;;6326866;28;20051;-78
2023/10/24 06:40:12;;;;;;;27.55;13.85;;;11.50;99.90;;;;;;6326145;28;20480;-78
2023/10/24 06:43:15;;;;;;;28.02;13.27;;;11.50;99.90;;;;;;6321363;28;20048;-77
2023/10/24 06:46:17;;;;;;;27.60;13.40;;;11.50;99.90;;;;;;6325642;28;20048;-76
2023/10/24 06:49:18;;;;;;;24.05;12.60;;;11.50;99.90;;;;;;6314826;28;20040;-77
2023/10/24 06:52:20;;;;;;;22.23;13.98;;;11.50;99.90;;;;;;6323019;28;20055;-77
2023/10/24 06:55:22;;;;;;;27.73;11.93;;;11.60;99.90;;;;;;6321828;28;20047;-77
2023/10/24 06:58:25;;;;;;;22.40;13.65;;;11.60;99.90;;;;;;6324860;28;20518;-78
2023/10/24 07:01:26;;;;;;;25.48;13.68;;;11.60;99.90;;;;;;6325311;28;20044;-78
2023/10/24 07:04:28;;;;;;;23.40;11.63;;;11.60;99.90;;;;;;6325172;28;20046;-79
2023/10/24 07:07:30;;;;;;;25.17;13.07;;;11.60;99.90;;;;;;6293453;28;20485;-78
2023/10/24 07:10:33;;;;;;;24.90;13.88;;;11.70;99.90;;;;;;6293202;28;20047;-77
2023/10/24 07:13:37;;;;;;;28.58;12.48;;;11.70;99.90;;;;;;6293904;28;20183;-78
2023/10/24 07:16:38;;;;;;;22.80;14.25;;;11.70;99.90;;;;;;6297811;28;20041;-78
2023/10/24 07:19:40;;;;;;;20.95;12.98;;;11.80;99.90;;;;;;6299441;28;20107;-77
2023/10/24 07:22:42;;;;;;;26.77;13.18;;;11.80;99.90;;;;;;6299043;28;20052;-77
2023/10/24 07:25:44;;;;;;;16.85;11.98;;;11.80;99.90;;;;;;6299784;28;20048;-76
2023/10/24 07:28:47;;;;;;;25.17;13.30;;;11.90;99.90;;;;;;6299565;28;20127;-78
2023/10/24 07:31:49;;;;;;;23.38;12.73;;;11.90;99.90;;;;;;6299184;28;20048;-79
2023/10/24 07:34:55;;;;;;;21.98;12.43;;;12.00;99.90;;;;;;6297896;28;20049;-79
2023/10/24 07:37:57;;;;;;;17.15;12.20;;;12.00;99.90;;;;;;6299747;28;20060;-79
2023/10/24 07:40:59;;;;;;;23.70;12.75;;;12.00;99.90;;;;;;6295588;28;20036;-77
2023/10/24 07:44:02;;;;;;;26.95;13.68;;;12.00;99.90;;;;;;6292933;28;20146;-79
2023/10/24 07:47:04;;;;;;;20.30;13.02;;;12.10;99.90;;;;;;6300686;28;20405;-79
2023/10/24 07:50:09;;;;;;;25.48;13.23;;;12.10;99.90;;;;;;6307354;28;20185;-78
2023/10/24 07:53:10;;;;;;;22.13;12.57;;;12.10;99.90;;;;;;6298457;28;20044;-77
2023/10/24 07:56:12;;;;;;;25.00;12.63;;;12.10;99.90;;;;;;6298257;28;20040;-78
2023/10/24 07:59:15;;;;;;;23.67;11.52;;;12.10;99.90;;;;;;6297487;28;20051;-78
2023/10/24 08:02:17;;;;;;;16.83;10.02;;;12.10;99.90;;;;;;6297078;28;20588;-78
2023/10/24 08:05:18;;;;;;;13.73;8.63;;;12.20;99.90;;;;;;6302096;28;20046;-81
2023/10/24 08:08:20;;;;;;;14.13;7.82;;;12.20;99.90;;;;;;6297699;28;20131;-79
2023/10/24 08:11:22;;;;;;;13.93;6.72;;;12.20;99.90;;;;;;6288910;28;20067;-79
2023/10/24 08:14:26;;;;;;;8.82;7.35;;;12.20;99.90;;;;;;6298505;28;20050;-78
2023/10/24 08:17:27;;;;;;;14.20;10.05;;;12.20;99.90;;;;;;6298488;28;20052;-77
2023/10/24 08:20:29;;;;;;;13.45;9.70;;;12.30;99.90;;;;;;6296970;28;20045;-79
2023/10/24 08:23:31;;;;;;;11.75;7.50;;;12.30;99.90;;;;;;6298309;28;20048;-79
2023/10/24 08:26:33;;;;;;;9.68;6.50;;;12.40;99.90;;;;;;6295685;28;20054;-79
2023/10/24 08:29:36;;;;;;;12.25;6.82;;;12.30;99.90;;;;;;6298187;28;20056;-83
2023/10/24 08:32:38;;;;;;;15.20;8.82;;;12.30;99.90;;;;;;6297720;28;20124;-80
2023/10/24 08:35:40;;;;;;;12.10;6.68;;;12.30;99.90;;;;;;6296741;28;20051;-78
2023/10/24 08:38:41;;;;;;;9.50;6.00;;;12.30;99.90;;;;;;6304542;28;20431;-79
2023/10/24 08:41:48;;;;;;;9.75;6.53;;;12.30;99.90;;;;;;6288397;28;20044;-79
2023/10/24 08:44:52;;;;;;;9.15;7.30;;;12.30;99.90;;;;;;6288065;28;20055;-79
2023/10/24 08:47:55;;;;;;;12.48;6.80;;;12.30;99.90;;;;;;6295409;28;20052;-80
2023/10/24 08:50:56;;;;;;;12.10;7.47;;;12.40;99.90;;;;;;6293399;28;20480;-79
2023/10/24 08:53:58;;;;;;;9.60;6.90;;;12.40;99.90;;;;;;6297612;28;20054;-79
2023/10/24 08:57:03;;;;;;;14.02;6.82;;;12.40;99.90;;;;;;6295313;28;20418;-81
2023/10/24 09:00:08;;;;;;;9.10;5.68;;;12.50;99.90;;;;;;6298363;28;20037;-82
2023/10/24 09:03:11;;;;;;;10.20;6.80;;;12.50;99.90;;;;;;6298825;28;20043;-79
2023/10/24 09:06:13;;;;;;;13.05;7.45;;;12.50;99.90;;;;;;6299218;28;20050;-80
2023/10/24 09:09:15;;;;;;;10.07;7.55;;;12.60;99.90;;;;;;6297242;28;20162;-80
2023/10/24 09:12:17;;;;;;;10.27;7.50;;;12.60;99.90;;;;;;6296034;28;20470;-79
2023/10/24 09:15:20;;;;;;;12.35;7.68;;;12.60;99.90;;;;;;6296032;28;20048;-81
2023/10/24 09:18:22;;;;;;;9.18;6.88;;;12.60;99.90;;;;;;6296322;28;20519;-81
2023/10/24 09:21:24;;;;;;;10.73;7.78;;;12.70;99.90;;;;;;6296659;28;20412;-80
2023/10/24 09:24:25;;;;;;;10.30;6.60;;;12.70;99.90;;;;;;6298061;28;20036;-82
2023/10/24 09:27:28;;;;;;;10.07;6.10;;;12.70;99.90;;;;;;6297322;28;20040;-80
2023/10/24 09:30:34;;;;;;;8.65;5.28;;;12.70;99.90;;;;;;6306362;28;20115;-79
2023/10/24 09:33:36;;;;;;;9.68;6.68;;;12.70;99.90;;;;;;6298149;28;20045;-78
2023/10/24 09:36:38;;;;;;;9.95;7.05;;;12.80;99.90;;;;;;6297758;28;20409;-79
2023/10/24 09:39:53;;;;;;;13.20;6.80;;;12.80;99.90;;;;;;6299593;28;20036;-79
2023/10/24 09:42:56;;;;;;;14.70;7.82;;;12.70;99.90;;;;;;6284223;28;20490;-81
2023/10/24 09:46:01;;;;;;;10.68;7.25;;;12.70;99.90;;;;;;6307994;28;20565;-82
2023/10/24 09:49:04;;;;;;;12.40;6.80;;;12.70;99.90;;;;;;6303715;28;20171;-80
2023/10/24 09:52:07;;;;;;;11.63;5.90;;;12.80;99.90;;;;;;6308368;28;20051;-81
2023/10/24 09:55:09;;;;;;;11.57;7.30;;;12.80;99.90;;;;;;6316338;28;20519;-79
2023/10/24 09:58:11;;;;;;;11.15;7.20;;;12.80;99.90;;;;;;6302163;28;20388;-81
2023/10/24 10:01:14;;;;;;;12.93;6.68;;;12.80;99.90;;;;;;6303315;28;20429;-81
2023/10/24 10:04:17;;;;;;;10.57;7.43;;;12.80;99.90;;;;;;6313397;28;20051;-80
2023/10/24 10:07:20;;;;;;;13.55;8.13;;;12.90;99.90;;;;;;6300875;28;20044;-81
2023/10/24 10:10:25;;;;;;;11.13;7.13;;;12.80;99.90;;;;;;6309970;28;20056;-78
2023/10/24 10:13:30;;;;;;;13.98;8.05;;;12.80;99.90;;;;;;6301349;28;20460;-80
2023/10/24 10:16:46;;;;;;;10.77;7.85;;;12.80;99.90;;;;;;6310956;28;20578;-81
2023/10/24 10:20:13;;;;;;;11.30;8.20;;;12.80;99.90;;;;;;6301765;28;20123;-81
2023/10/24 10:23:29;;;;;;;12.93;7.45;;;12.90;99.90;;;;;;6302244;28;20036;-82
2023/10/24 10:26:45;;;;;;;11.27;7.88;;;12.90;99.90;;;;;;6300455;28;20044;-79
2023/10/24 10:29:57;;;;;;;17.20;8.57;;;12.90;99.90;;;;;;6301498;28;20060;-79
2023/10/24 10:33:10;;;;;;;13.75;7.50;;;13.00;99.90;;;;;;6308389;28;20050;-79
2023/10/24 10:36:13;;;;;;;10.20;7.68;;;13.00;99.90;;;;;;6313027;28;20051;-79
2023/10/24 10:39:15;;;;;;;11.02;7.57;;;13.00;99.90;;;;;;6306573;28;20047;-81
2023/10/24 10:42:47;;;;;;;10.05;7.05;;;13.10;99.90;;;;;;6300115;28;20047;-80
2023/10/24 10:45:49;;;;;;;12.20;6.75;;;13.10;99.90;;;;;;6295082;28;20055;-81
2023/10/24 10:48:52;;;;;;;12.35;7.07;;;13.10;99.90;;;;;;6310120;28;20369;-81
2023/10/24 10:51:56;;;;;;;12.18;7.43;;;13.10;99.90;;;;;;6311719;28;20144;-80
2023/10/24 10:55:10;;;;;;;9.48;6.88;;;13.20;99.90;;;;;;6300796;28;20040;-80
2023/10/24 10:58:23;;;;;;;10.60;6.90;;;13.20;99.90;;;;;;6307737;28;20064;-83
2023/10/24 11:01:34;;;;;;;12.32;7.10;;;13.20;99.90;;;;;;6300215;28;20037;-79
2023/10/24 11:04:37;;;;;;;9.10;6.90;;;13.30;99.90;;;;;;6299788;28;20040;-79
2023/10/24 11:07:54;;;;;;;10.27;7.30;;;13.30;99.90;;;;;;6308185;28;20460;-78
2023/10/24 11:10:57;;;;;;;10.50;6.67;;;13.30;99.90;;;;;;6287464;28;20041;-78
2023/10/24 11:14:14;;;;;;;9.18;6.72;;;13.30;99.90;;;;;;6313093;28;20472;-84
2023/10/24 11:17:19;;;;;;;10.32;6.85;;;13.40;99.90;;;;;;6313684;28;20044;-81
2023/10/24 11:20:23;;;;;;;14.23;6.78;;;13.40;99.90;;;;;;6301824;28;20388;-78
2023/10/24 11:23:26;;;;;;;9.50;6.05;;;13.40;99.90;;;;;;6296312;28;20044;-79
2023/10/24 11:26:27;;;;;;;12.13;7.30;;;13.50;99.90;;;;;;6292735;28;20045;-79
2023/10/24 11:29:30;;;;;;;14.27;7.22;;;13.50;99.90;;;;;;6291303;28;20045;-80
2023/10/24 11:32:33;;;;;;;14.15;7.22;;;13.50;99.90;;;;;;6286855;28;20100;-81
2023/10/24 11:35:36;;;;;;;11.55;7.82;;;13.60;99.90;;;;;;6287060;28;20068;-80
2023/10/24 11:38:38;;;;;;;9.90;6.78;;;13.60;99.90;;;;;;6288399;28;20529;-80
2023/10/24 11:41:39;;;;;;;9.63;7.38;;;13.70;99.90;;;;;;6283448;28;20041;-82
2023/10/24 11:44:41;;;;;;;12.77;8.15;;;13.70;99.90;;;;;;6276395;28;20044;-81
2023/10/24 11:47:43;;;;;;;19.23;12.73;;;13.70;99.90;;;;;;6291744;28;20051;-80
2023/10/24 11:50:47;;;;;;;10.60;8.20;;;13.70;99.90;;;;;;6277757;28;20458;-79
2023/10/24 11:53:49;;;;;;;12.57;8.38;;;13.80;99.90;;;;;;6275704;28;20413;-79
2023/10/24 11:56:51;;;;;;;12.55;6.95;;;13.80;99.90;;;;;;6275333;28;20040;-78
2023/10/24 11:59:54;;;;;;;10.30;7.25;;;13.80;99.90;;;;;;6282935;28;20056;-79
2023/10/24 12:02:55;;;;;;;12.30;7.35;;;13.80;99.90;;;;;;6283981;28;20047;-83
2023/10/24 12:06:04;;;;;;;11.80;7.40;;;13.80;99.90;;;;;;6281305;28;20041;-80
2023/10/24 12:09:06;;;;;;;13.05;6.80;;;13.90;99.90;;;;;;6278486;28;20049;-80
2023/10/24 12:12:08;;;;;;;13.45;7.07;;;13.90;99.90;;;;;;6278241;28;20148;-80
2023/10/24 12:15:10;;;;;;;12.48;6.28;;;14.00;99.90;;;;;;6286974;28;20040;-81
2023/10/24 12:18:12;;;;;;;17.90;7.10;;;14.00;99.90;;;;;;6287132;28;20048;-79
2023/10/24 12:21:15;;;;;;;12.23;7.75;;;14.10;99.90;;;;;;6287921;28;20045;-79
2023/10/24 12:24:17;;;;;;;10.68;6.20;;;14.10;99.90;;;;;;6302060;22;20446;-78
2023/10/24 12:27:18;;;;;;;13.80;5.70;;;14.20;99.90;;;;;;6290250;28;20067;-78
2023/10/24 12:30:20;;;;;;;10.52;6.63;;;14.20;99.90;;;;;;6292090;28;20075;-80
2023/10/24 12:33:22;;;;;;;8.10;5.80;;;14.30;99.90;;;;;;6294699;28;20473;-77
2023/10/24 12:36:25;;;;;;;6.82;5.70;;;14.30;99.90;;;;;;6276614;28;20041;-77
2023/10/24 12:39:27;;;;;;;7.93;5.35;;;14.30;99.90;;;;;;6270763;28;20072;-77
2023/10/24 12:42:28;;;;;;;12.20;5.32;;;14.30;99.90;;;;;;6276547;28;20055;-78
2023/10/24 12:45:30;;;;;;;6.18;5.25;;;14.40;99.90;;;;;;6284386;28;20047;-78
2023/10/24 12:48:33;;;;;;;7.97;5.93;;;14.50;99.90;;;;;;6270539;28;20106;-77
2023/10/24 12:51:36;;;;;;;8.73;5.60;;;14.50;99.90;;;;;;6265757;28;20088;-77
2023/10/24 12:54:38;;;;;;;8.18;6.05;;;14.50;99.90;;;;;;6275258;28;20051;-79
2023/10/24 12:57:40;;;;;;;6.28;4.82;;;14.60;99.90;;;;;;6274657;28;20055;-76
2023/10/24 13:00:42;;;;;;;8.10;5.93;;;14.60;99.90;;;;;;6272881;28;20052;-78
2023/10/24 13:03:43;;;;;;;6.03;4.20;;;14.60;99.90;;;;;;6272892;28;20808;-77
2023/10/24 13:06:47;;;;;;;5.40;4.13;;;14.60;99.90;;;;;;6272960;28;20532;-77
2023/10/24 13:09:49;;;;;;;12.13;7.68;;;14.60;99.90;;;;;;6271997;28;20057;-77
2023/10/24 13:12:50;;;;;;;7.82;6.68;;;14.70;99.90;;;;;;6272066;28;20045;-77
2023/10/24 13:15:52;;;;;;;7.30;5.22;;;14.70;99.90;;;;;;6272192;28;20045;-77
2023/10/24 13:18:54;;;;;;;12.65;5.93;;;14.70;99.90;;;;;;6282368;28;20029;-77
2023/10/24 13:21:57;;;;;;;13.13;4.82;;;14.60;99.90;;;;;;6273178;28;20132;-79
2023/10/24 13:24:59;;;;;;;6.05;3.97;;;14.60;99.90;;;;;;6271397;28;20529;-77
2023/10/24 13:28:01;;;;;;;5.00;3.53;;;14.60;99.90;;;;;;6274207;28;20456;-78
2023/10/24 13:31:04;;;;;;;22.20;10.60;;;14.70;99.90;;;;;;6278839;28;20060;-77
2023/10/24 13:34:06;;;;;;;6.30;4.43;;;14.90;99.90;;;;;;6279468;28;20068;-78
2023/10/24 13:37:09;;;;;;;8.38;5.57;;;15.00;99.90;;;;;;6278459;28;20055;-78
2023/10/24 13:40:11;;;;;;;6.10;4.15;;;15.10;99.90;;;;;;6279280;28;20048;-78
2023/10/24 13:43:13;;;;;;;4.55;3.40;;;15.30;99.90;;;;;;6279998;28;20040;-78
2023/10/24 13:46:14;;;;;;;5.45;3.30;;;15.30;99.90;;;;;;6278548;28;20049;-78
2023/10/24 13:49:16;;;;;;;4.20;2.97;;;15.30;99.90;;;;;;6284961;28;20055;-78
2023/10/24 13:52:19;;;;;;;3.47;2.53;;;15.30;99.90;;;;;;6289852;28;20045;-77
2023/10/24 13:55:21;;;;;;;5.45;2.72;;;15.20;99.90;;;;;;6277000;28;20466;-77
2023/10/24 13:58:23;;;;;;;4.25;3.13;;;15.20;99.90;;;;;;6277735;28;20055;-78
2023/10/24 14:01:25;;;;;;;7.38;5.05;;;15.20;99.90;;;;;;6278718;28;20051;-79
2023/10/24 14:04:27;;;;;;;4.10;3.50;;;15.20;99.90;;;;;;6277109;28;20129;-78
2023/10/24 14:07:30;;;;;;;2.75;2.33;;;15.10;99.90;;;;;;6276066;28;20045;-77
2023/10/24 14:10:32;;;;;;;6.85;2.67;;;15.10;99.90;;;;;;6293616;28;20072;-78
2023/10/24 14:13:34;;;;;;;4.32;2.65;;;15.10;99.90;;;;;;6279284;28;20489;-77
2023/10/24 14:16:35;;;;;;;2.83;2.40;;;15.10;99.90;;;;;;6278185;28;20037;-78
2023/10/24 14:19:37;;;;;;;2.78;2.13;;;15.00;99.90;;;;;;6277458;28;20417;-79
2023/10/24 14:22:40;;;;;;;4.90;3.10;;;15.00;99.90;;;;;;6277350;28;20052;-77
2023/10/24 14:25:42;;;;;;;2.78;2.42;;;15.10;99.90;;;;;;6275671;28;20045;-76
2023/10/24 14:28:44;;;;;;;3.28;2.00;;;15.10;99.90;;;;;;6287261;28;20033;-76
2023/10/24 14:31:46;;;;;;;9.57;5.05;;;15.40;99.90;;;;;;6276227;28;20107;-76
2023/10/24 14:34:47;;;;;;;2.13;1.90;;;15.50;99.90;;;;;;6274335;28;20478;-77
2023/10/24 14:37:50;;;;;;;3.08;2.25;;;15.60;99.90;;;;;;6274810;28;20053;-77
2023/10/24 14:40:52;;;;;;;3.75;2.75;;;15.60;99.90;;;;;;6273961;28;20637;-77
2023/10/24 14:43:54;;;;;;;16.48;6.82;;;15.60;99.90;;;;;;6276530;28;20432;-77
2023/10/24 14:46:55;;;;;;;12.45;3.85;;;15.50;99.90;;;;;;6274535;28;20045;-77
2023/10/24 14:49:59;;;;;;;4.93;3.08;;;15.30;99.90;;;;;;6274907;28;20059;-77
2023/10/24 14:53:02;;;;;;;2.95;1.55;;;15.20;99.90;;;;;;6274672;28;20045;-76
2023/10/24 14:56:04;;;;;;;4.10;2.25;;;15.10;99.90;;;;;;6274317;28;20087;-76
2023/10/24 14:59:06;;;;;;;2.08;1.17;;;14.90;99.90;;;;;;6274531;28;20413;-77
2023/10/24 15:02:08;;;;;;;3.58;1.52;;;14.90;99.90;;;;;;6275060;28;20155;-78
2023/10/24 15:05:10;;;;;;;2.10;1.73;;;14.80;99.90;;;;;;6275109;28;20049;-77
2023/10/24 15:08:13;;;;;;;1.38;1.23;;;14.70;99.90;;;;;;6274839;28;20051;-77
2023/10/24 15:11:15;;;;;;;1.48;1.20;;;14.60;99.90;;;;;;6276621;28;20055;-78
2023/10/24 15:14:17;;;;;;;1.13;1.00;;;14.50;99.90;;;;;;6277907;28;20053;-78
2023/10/24 15:17:18;;;;;;;3.75;3.45;;;14.50;99.90;;;;;;6275386;28;20457;-78
2023/10/24 15:20:20;;;;;;;4.18;1.33;;;14.40;99.90;;;;;;6274974;28;20060;-76
2023/10/24 15:23:23;;;;;;;2.60;1.73;;;14.40;99.90;;;;;;6273364;28;20693;-76
2023/10/24 15:26:25;;;;;;;4.07;1.70;;;14.40;99.90;;;;;;6274917;28;20041;-78
2023/10/24 15:29:28;;;;;;;1.52;1.42;;;14.30;99.90;;;;;;6275682;28;20045;-78
2023/10/24 15:32:30;;;;;;;1.67;1.45;;;14.30;99.90;;;;;;6278532;28;20068;-78
2023/10/24 15:35:33;;;;;;;2.38;1.75;;;14.20;99.90;;;;;;6277752;28;20041;-78